Time;durP1;ratioP1;P1;durP2;ratioP2;P2;SDS_P1;SDS_P2;PMS_P1;PMS_P2;Temp;Humidity;BMP_temperature;BMP_pressure;BME280_temperature;BME280_humidity;BME280_pressure;Samples;Min_cycle;Max_cycle;Signal;HPM_P1;HPM_P2
2022/05/21 00:04:58;;;;;;;13.55;5.85;;;14.90;99.90;;;;;;4788375;30;20079;-93
2022/05/21 00:07:29;;;;;;;11.63;5.53;;;14.70;99.90;;;;;;4773217;30;20039;-92
2022/05/21 00:09:56;;;;;;;13.80;6.05;;;14.50;99.90;;;;;;4773912;30;20027;-90
2022/05/21 00:12:23;;;;;;;10.82;5.95;;;14.40;99.90;;;;;;4759494;30;20034;-92
2022/05/21 00:14:53;;;;;;;15.68;6.45;;;14.40;99.90;;;;;;4758485;30;20119;-89
2022/05/21 00:17:20;;;;;;;12.25;5.82;;;14.30;99.90;;;;;;4757226;30;20040;-91
2022/05/21 00:19:47;;;;;;;8.85;5.82;;;14.30;99.90;;;;;;4746727;30;20033;-89
2022/05/21 00:22:14;;;;;;;8.88;5.82;;;14.20;99.90;;;;;;4761133;30;20483;-90
2022/05/21 00:24:40;;;;;;;15.02;6.60;;;14.20;99.90;;;;;;4746572;30;20486;-91
2022/05/21 00:27:07;;;;;;;15.05;7.15;;;14.10;99.90;;;;;;4746452;30;20043;-91
2022/05/21 00:29:34;;;;;;;11.63;6.18;;;14.20;99.90;;;;;;4746510;30;20028;-91
2022/05/21 00:32:02;;;;;;;9.60;6.85;;;14.20;99.90;;;;;;4746306;30;20032;-91
2022/05/21 00:34:35;;;;;;;14.40;7.07;;;14.20;99.90;;;;;;4746508;30;20035;-90
2022/05/21 00:37:03;;;;;;;16.45;6.32;;;14.20;99.90;;;;;;4746547;30;20040;-90
2022/05/21 00:39:30;;;;;;;12.77;6.93;;;14.20;99.90;;;;;;4746587;30;20089;-89
2022/05/21 00:42:05;;;;;;;10.65;6.05;;;14.30;99.90;;;;;;4746245;30;20050;-90
2022/05/21 00:44:33;;;;;;;11.10;6.43;;;14.30;99.90;;;;;;4746499;30;20055;-92
2022/05/21 00:47:00;;;;;;;10.10;6.25;;;14.30;99.90;;;;;;4746554;30;20053;-90
2022/05/21 00:49:39;;;;;;;10.18;6.50;;;14.30;99.90;;;;;;4746288;30;20406;-91
2022/05/21 00:52:22;;;;;;;13.70;6.85;;;14.30;99.90;;;;;;4746272;30;20032;-89
2022/05/21 00:54:59;;;;;;;13.05;7.00;;;14.30;99.90;;;;;;4746060;30;20450;-90
2022/05/21 00:57:43;;;;;;;13.63;6.68;;;14.40;99.90;;;;;;4746460;30;20039;-91
2022/05/21 01:00:15;;;;;;;8.38;5.80;;;14.40;99.90;;;;;;4746029;30;20051;-91
2022/05/21 01:02:57;;;;;;;9.13;6.20;;;14.40;99.90;;;;;;4745024;30;20051;-91
2022/05/21 01:05:27;;;;;;;11.40;5.93;;;14.50;99.90;;;;;;4743326;30;20051;-91
2022/05/21 01:07:58;;;;;;;9.10;5.40;;;14.50;99.90;;;;;;4743104;30;20044;-90
2022/05/21 01:10:29;;;;;;;12.30;5.47;;;14.40;99.90;;;;;;4743342;30;20063;-92
2022/05/21 01:12:58;;;;;;;16.05;5.60;;;14.30;99.90;;;;;;4743242;30;20029;-91
2022/05/21 01:15:37;;;;;;;9.88;5.03;;;14.20;99.90;;;;;;4743085;30;20036;-91
2022/05/21 01:18:06;;;;;;;6.75;4.85;;;14.10;99.90;;;;;;4743311;30;20036;-94
2022/05/21 01:20:47;;;;;;;11.70;5.53;;;14.00;99.90;;;;;;4743104;30;20070;-90
2022/05/21 01:23:15;;;;;;;11.75;5.10;;;14.00;99.90;;;;;;4742789;30;20032;-93
2022/05/21 01:25:44;;;;;;;10.73;4.97;;;14.00;99.90;;;;;;4742910;30;20039;-90
2022/05/21 01:28:15;;;;;;;9.77;5.38;;;14.00;99.90;;;;;;4742814;30;20036;-92
2022/05/21 01:30:47;;;;;;;8.75;5.25;;;14.00;99.90;;;;;;4739298;30;20125;-91
2022/05/21 01:33:16;;;;;;;7.93;5.07;;;14.00;99.90;;;;;;4740145;30;20041;-90
2022/05/21 01:35:45;;;;;;;6.97;4.88;;;14.00;99.90;;;;;;4740196;30;20070;-90
2022/05/21 01:38:14;;;;;;;10.80;4.72;;;14.00;99.90;;;;;;4740355;30;20032;-90
2022/05/21 01:40:41;;;;;;;6.50;4.50;;;14.10;99.90;;;;;;4740307;30;20040;-93
2022/05/21 01:45:53;;;;;;;10.48;5.10;;;14.20;99.90;;;;;;4740136;30;20048;-91
2022/05/21 01:48:21;;;;;;;9.13;5.90;;;14.30;99.90;;;;;;4739931;30;20483;-90
2022/05/21 01:50:55;;;;;;;10.82;5.63;;;14.20;99.90;;;;;;4740088;30;20446;-90
2022/05/21 01:53:26;;;;;;;11.55;6.35;;;14.20;99.90;;;;;;4740239;30;20044;-90
2022/05/21 01:55:56;;;;;;;12.15;6.38;;;14.10;99.90;;;;;;4755728;30;20398;-91
2022/05/21 01:58:22;;;;;;;11.48;7.20;;;14.10;99.90;;;;;;4739878;30;20036;-91
2022/05/21 02:00:54;;;;;;;10.30;6.55;;;14.00;99.90;;;;;;4739693;30;20048;-90
2022/05/21 02:03:21;;;;;;;15.13;6.15;;;14.00;99.90;;;;;;4745308;30;20047;-92
2022/05/21 02:05:47;;;;;;;9.63;5.63;;;13.90;99.90;;;;;;4742382;30;20048;-93
2022/05/21 02:08:15;;;;;;;8.73;5.20;;;13.90;99.90;;;;;;4757099;30;20046;-90
2022/05/21 02:10:43;;;;;;;8.93;4.93;;;13.80;99.90;;;;;;4757225;30;20031;-90
2022/05/21 02:13:15;;;;;;;9.27;5.30;;;13.80;99.90;;;;;;4742542;30;20073;-91
2022/05/21 02:15:42;;;;;;;9.02;5.93;;;13.80;99.90;;;;;;4742509;30;20032;-91
2022/05/21 02:18:09;;;;;;;8.43;5.45;;;13.70;99.90;;;;;;4742569;30;20028;-93
2022/05/21 02:20:41;;;;;;;10.45;5.63;;;13.70;99.90;;;;;;4742403;30;20185;-90
2022/05/21 02:23:11;;;;;;;7.55;5.18;;;13.70;99.90;;;;;;4742362;30;20051;-90
2022/05/21 02:25:38;;;;;;;10.48;5.10;;;13.70;99.90;;;;;;4742403;30;20065;-90
2022/05/21 02:28:10;;;;;;;8.23;5.50;;;13.60;99.90;;;;;;4742432;30;20032;-90
2022/05/21 02:30:36;;;;;;;9.10;4.95;;;13.50;99.90;;;;;;4742269;30;20174;-92
2022/05/21 02:33:12;;;;;;;7.50;5.55;;;13.50;99.90;;;;;;4742150;30;20045;-91
2022/05/21 02:35:42;;;;;;;6.82;4.50;;;13.30;99.90;;;;;;4742251;30;20426;-90
2022/05/21 02:40:54;;;;;;;6.25;4.43;;;13.20;99.90;;;;;;4756376;30;20521;-90
2022/05/21 02:43:21;;;;;;;6.85;4.15;;;13.20;99.90;;;;;;4741957;30;20032;-91
2022/05/21 02:45:48;;;;;;;8.02;4.45;;;13.20;99.90;;;;;;4756596;30;20039;-91
2022/05/21 02:48:14;;;;;;;8.27;4.50;;;13.30;99.90;;;;;;4741783;30;20043;-88
2022/05/21 02:50:44;;;;;;;11.65;4.68;;;13.30;99.90;;;;;;4741764;30;20042;-90
2022/05/21 02:53:16;;;;;;;6.93;4.13;;;13.30;99.90;;;;;;4741739;30;20039;-92
2022/05/21 02:55:44;;;;;;;7.57;4.18;;;13.20;99.90;;;;;;4741885;30;20039;-91
2022/05/21 02:58:11;;;;;;;7.70;4.03;;;13.10;99.90;;;;;;4741960;30;20038;-91
2022/05/21 03:00:38;;;;;;;6.45;4.22;;;13.00;99.90;;;;;;4756577;30;20035;-91
2022/05/21 03:03:08;;;;;;;5.05;3.63;;;12.90;99.90;;;;;;4765450;30;20051;-92
2022/05/21 03:05:35;;;;;;;8.93;4.38;;;12.90;99.90;;;;;;4741797;30;20027;-91
2022/05/21 03:10:52;;;;;;;7.90;4.45;;;12.70;99.90;;;;;;4756224;30;20063;-91
2022/05/21 03:13:23;;;;;;;8.90;4.18;;;12.50;99.90;;;;;;4741309;30;20027;-92
2022/05/21 03:15:50;;;;;;;8.48;4.25;;;12.40;99.90;;;;;;4741504;30;20044;-90
2022/05/21 03:18:17;;;;;;;9.68;4.75;;;12.40;99.90;;;;;;4741495;30;20451;-90
2022/05/21 03:20:44;;;;;;;7.68;4.13;;;12.30;99.90;;;;;;4741417;30;20067;-89
2022/05/21 03:23:11;;;;;;;7.68;3.90;;;12.10;99.90;;;;;;4741255;30;20107;-89
2022/05/21 03:25:38;;;;;;;8.35;3.92;;;12.00;99.90;;;;;;4741339;30;20046;-90
2022/05/21 03:28:05;;;;;;;9.10;4.43;;;12.00;99.90;;;;;;4755916;30;20034;-90
2022/05/21 03:30:32;;;;;;;7.13;4.05;;;11.90;99.90;;;;;;4741373;30;20032;-91
2022/05/21 03:32:59;;;;;;;6.85;4.10;;;11.90;99.90;;;;;;4741203;30;20032;-91
2022/05/21 03:35:26;;;;;;;6.28;3.85;;;11.90;99.90;;;;;;4741170;30;20031;-92
2022/05/21 03:37:54;;;;;;;8.32;4.22;;;11.90;99.90;;;;;;4741232;30;20375;-91
2022/05/21 03:40:28;;;;;;;5.85;4.10;;;11.90;99.90;;;;;;4755761;30;20065;-90
2022/05/21 03:42:55;;;;;;;8.55;3.95;;;11.80;99.90;;;;;;4741122;30;20043;-89
2022/05/21 03:45:26;;;;;;;10.90;4.32;;;11.80;99.90;;;;;;4741290;30;20031;-91
2022/05/21 03:47:53;;;;;;;5.63;3.97;;;11.80;99.90;;;;;;4740961;30;20035;-88
2022/05/21 03:50:27;;;;;;;7.35;4.10;;;11.90;99.90;;;;;;4741041;30;20027;-91
2022/05/21 03:52:57;;;;;;;5.93;3.92;;;11.90;99.90;;;;;;4740793;30;20121;-91
2022/05/21 03:55:23;;;;;;;7.07;4.15;;;11.90;99.90;;;;;;4741475;30;20036;-90
2022/05/21 03:57:50;;;;;;;7.22;3.92;;;12.00;99.90;;;;;;4742314;30;20038;-90
2022/05/21 04:00:21;;;;;;;8.02;3.75;;;12.10;99.90;;;;;;4771494;30;20093;-91
2022/05/21 04:02:47;;;;;;;6.78;3.83;;;12.30;99.90;;;;;;4744555;30;20485;-92
2022/05/21 04:05:14;;;;;;;9.63;4.32;;;12.40;99.90;;;;;;4740787;30;20414;-94
2022/05/21 04:07:41;;;;;;;7.10;3.60;;;12.50;99.90;;;;;;4741385;30;20150;-92
2022/05/21 04:10:10;;;;;;;5.32;3.50;;;12.70;99.90;;;;;;4740687;30;20036;-91
2022/05/21 04:12:36;;;;;;;7.32;3.95;;;12.80;99.90;;;;;;4740796;30;20031;-91
2022/05/21 04:15:06;;;;;;;7.32;4.05;;;13.00;99.90;;;;;;4740902;30;20059;-94
2022/05/21 04:17:33;;;;;;;9.05;4.57;;;13.20;99.90;;;;;;4755545;30;20043;-91
2022/05/21 04:20:00;;;;;;;9.20;4.13;;;13.40;99.90;;;;;;4740695;30;20100;-91
2022/05/21 04:22:26;;;;;;;6.93;4.00;;;13.60;99.90;;;;;;4740745;30;20043;-93
2022/05/21 04:24:53;;;;;;;6.95;3.90;;;13.80;99.90;;;;;;4740590;30;20036;-92
2022/05/21 04:27:20;;;;;;;12.73;4.88;;;14.10;99.90;;;;;;4740650;30;20058;-90
2022/05/21 04:29:46;;;;;;;6.05;3.92;;;14.60;99.90;;;;;;4740559;30;20036;-91
2022/05/21 04:32:13;;;;;;;10.73;4.50;;;15.00;99.90;;;;;;4740576;30;20036;-90
2022/05/21 04:34:39;;;;;;;6.13;4.43;;;15.40;99.90;;;;;;4740571;30;20398;-94
2022/05/21 04:37:06;;;;;;;6.38;5.70;;;15.90;99.90;;;;;;4755262;30;20173;-91
2022/05/21 04:39:33;;;;;;;8.68;7.00;;;17.30;99.90;;;;;;4740567;30;20031;-92
2022/05/21 04:42:02;;;;;;;10.10;7.22;;;19.60;99.90;;;;;;4740339;30;20066;-91
2022/05/21 04:44:31;;;;;;;9.07;8.18;;;22.00;99.90;;;;;;4740479;30;20509;-91
2022/05/21 04:46:59;;;;;;;10.73;9.00;;;24.10;99.90;;;;;;4754878;30;20117;-92
2022/05/21 04:49:26;;;;;;;10.07;9.27;;;25.20;99.90;;;;;;4740421;30;20036;-92
2022/05/21 04:51:52;;;;;;;9.90;9.00;;;26.20;97.50;;;;;;4740406;30;20035;-91
2022/05/21 04:54:22;;;;;;;10.15;9.48;;;27.20;96.20;;;;;;4755236;30;20119;-92
2022/05/21 04:56:48;;;;;;;11.93;10.75;;;28.10;94.70;;;;;;4740675;30;20032;-92
2022/05/21 04:59:15;;;;;;;10.93;10.13;;;28.60;93.80;;;;;;4755151;30;20040;-93
2022/05/21 05:01:42;;;;;;;11.82;10.77;;;28.90;92.70;;;;;;4733731;30;20080;-92
2022/05/21 05:04:13;;;;;;;11.80;10.73;;;28.50;92.20;;;;;;4721749;30;20079;-93
2022/05/21 05:06:40;;;;;;;11.07;10.07;;;28.60;91.80;;;;;;4722490;30;20053;-94
2022/05/21 05:09:09;;;;;;;11.93;10.80;;;29.10;91.70;;;;;;4722791;30;20047;-93
2022/05/21 05:11:37;;;;;;;12.35;11.30;;;29.30;91.70;;;;;;4722595;30;20048;-94
2022/05/21 05:14:09;;;;;;;12.48;11.30;;;29.60;91.30;;;;;;4722256;30;20116;-93
2022/05/21 05:16:36;;;;;;;13.05;11.68;;;30.00;91.30;;;;;;4722497;30;20056;-94
2022/05/21 07:27:18;;;;;;;12.38;11.52;;;33.40;53.50;;;;;;4894737;24;20509;-86
2022/05/21 07:29:45;;;;;;;11.45;10.75;;;32.50;54.10;;;;;;4771797;30;20107;-86
2022/05/21 07:32:23;;;;;;;12.10;11.30;;;32.60;54.00;;;;;;4765134;30;20389;-85
2022/05/21 07:35:07;;;;;;;11.40;10.60;;;32.60;52.80;;;;;;4766810;30;20035;-86
2022/05/21 07:37:35;;;;;;;12.05;11.05;;;32.80;52.90;;;;;;4762120;30;20039;-87
2022/05/21 07:40:07;;;;;;;11.77;10.93;;;33.40;52.80;;;;;;4738032;30;20036;-90
2022/05/21 07:42:37;;;;;;;12.07;11.18;;;33.00;52.50;;;;;;4723588;30;20044;-88
2022/05/21 07:45:12;;;;;;;11.43;10.73;;;32.80;52.80;;;;;;4723600;30;20047;-88
2022/05/21 07:47:39;;;;;;;12.05;10.98;;;32.70;52.30;;;;;;4723525;30;20117;-87
2022/05/21 07:50:08;;;;;;;11.80;11.00;;;33.20;51.70;;;;;;4723864;30;20497;-87
2022/05/21 07:52:35;;;;;;;11.40;10.70;;;33.30;50.20;;;;;;4724071;30;20042;-87
2022/05/21 07:55:02;;;;;;;11.18;10.35;;;33.10;51.20;;;;;;4754513;30;20036;-84
2022/05/21 07:57:28;;;;;;;11.35;10.43;;;33.40;49.80;;;;;;4740620;30;20042;-75
2022/05/21 08:10:46;;;;;;;11.82;10.98;;;31.80;50.10;;;;;;5406414;24;20083;-83
2022/05/21 08:13:13;;;;;;;11.23;10.43;;;31.70;50.10;;;;;;4804953;29;20109;-81
2022/05/21 08:15:41;;;;;;;10.90;10.25;;;31.50;51.30;;;;;;4788984;29;20046;-83
2022/05/21 08:18:07;;;;;;;11.20;10.50;;;31.80;51.20;;;;;;4789815;29;20505;-82
2022/05/21 08:20:36;;;;;;;12.00;10.93;;;31.70;49.50;;;;;;4805445;29;20493;-77
2022/05/21 08:28:45;;;;;;;11.80;11.10;;;31.30;49.00;;;;;;4791911;29;20039;-79
2022/05/21 08:31:16;;;;;;;12.70;11.52;;;31.40;49.20;;;;;;4806273;29;20042;-79
2022/05/21 08:33:43;;;;;;;11.55;10.82;;;31.20;49.30;;;;;;4806185;29;20493;-79
2022/05/21 08:36:09;;;;;;;11.48;10.75;;;31.00;50.30;;;;;;4796183;29;20512;-79
2022/05/21 08:38:36;;;;;;;11.30;10.60;;;31.30;50.00;;;;;;4773173;30;20031;-79
2022/05/21 08:41:24;;;;;;;11.88;11.00;;;31.00;49.90;;;;;;4793898;30;20039;-86
2022/05/21 08:44:16;;;;;;;11.73;11.02;;;31.10;49.70;;;;;;4792039;30;20031;-86
2022/05/21 08:47:02;;;;;;;12.50;11.60;;;31.10;51.00;;;;;;4789461;29;20034;-89
2022/05/21 08:50:01;;;;;;;11.80;11.20;;;30.90;51.60;;;;;;4793964;29;20120;-88
2022/05/21 08:53:08;;;;;;;12.23;11.27;;;30.80;50.60;;;;;;4809428;29;20042;-86
2022/05/21 08:55:43;;;;;;;12.48;11.63;;;30.60;52.60;;;;;;4778251;29;20100;-88
2022/05/21 08:58:32;;;;;;;12.77;11.80;;;30.60;50.80;;;;;;4809139;29;20043;-87
2022/05/21 09:00:59;;;;;;;12.98;11.93;;;30.30;50.40;;;;;;4809016;29;20119;-89
2022/05/21 09:03:28;;;;;;;12.75;11.75;;;30.20;51.40;;;;;;4794070;29;20496;-87
2022/05/21 09:06:19;;;;;;;12.68;11.60;;;30.80;52.10;;;;;;4792255;29;20035;-87
2022/05/21 09:08:52;;;;;;;12.43;11.20;;;31.30;51.90;;;;;;4790521;30;20042;-87
2022/05/21 09:11:43;;;;;;;12.38;11.60;;;31.40;50.40;;;;;;4799717;29;20058;-89
2022/05/21 09:14:34;;;;;;;11.70;10.90;;;31.50;49.20;;;;;;4786064;29;20114;-86
2022/05/21 09:17:03;;;;;;;11.90;11.20;;;31.00;48.60;;;;;;4775160;29;20027;-90
2022/05/21 09:19:42;;;;;;;11.60;10.90;;;30.70;49.20;;;;;;4810073;29;20079;-89
2022/05/21 09:22:18;;;;;;;12.27;11.25;;;30.60;48.50;;;;;;4803674;29;20091;-89
2022/05/21 09:24:50;;;;;;;13.85;11.25;;;30.50;48.70;;;;;;4797482;29;20084;-88
2022/05/21 09:27:42;;;;;;;11.90;11.02;;;30.10;48.20;;;;;;4775794;30;20035;-89
2022/05/21 09:30:24;;;;;;;12.30;11.10;;;30.10;48.30;;;;;;4791502;29;20074;-89
2022/05/21 09:32:56;;;;;;;11.70;11.00;;;30.10;46.60;;;;;;4778143;29;20062;-91
2022/05/21 09:35:48;;;;;;;11.82;10.93;;;29.90;47.50;;;;;;4797472;29;20540;-91
2022/05/21 09:38:22;;;;;;;12.02;11.32;;;29.80;48.00;;;;;;4792791;29;20027;-90
2022/05/21 09:41:10;;;;;;;12.75;12.05;;;30.20;49.20;;;;;;4776437;29;20039;-91
2022/05/21 09:46:41;;;;;;;12.38;11.48;;;29.60;49.50;;;;;;4787462;30;20027;-90
2022/05/21 09:49:22;;;;;;;11.82;11.10;;;29.20;48.10;;;;;;4792167;29;20489;-89
2022/05/21 09:52:07;;;;;;;12.57;11.88;;;29.20;47.70;;;;;;4791250;29;20042;-89
2022/05/21 09:54:45;;;;;;;11.52;10.82;;;29.20;47.90;;;;;;4787477;30;20436;-89
2022/05/21 09:57:37;;;;;;;12.60;11.90;;;29.30;46.40;;;;;;4795344;29;20065;-89
2022/05/21 10:00:21;;;;;;;12.98;11.90;;;29.60;49.20;;;;;;4792531;29;20034;-89
2022/05/21 10:03:01;;;;;;;11.98;11.18;;;29.60;48.00;;;;;;4808949;29;20043;-89
2022/05/21 10:05:35;;;;;;;12.18;11.25;;;29.60;47.60;;;;;;4810479;29;20118;-90
2022/05/21 10:11:11;;;;;;;13.02;12.00;;;29.90;48.60;;;;;;4795993;30;20055;-90
2022/05/21 10:13:50;;;;;;;12.13;11.50;;;29.40;46.90;;;;;;4799440;29;20087;-90
2022/05/21 10:16:29;;;;;;;12.02;11.43;;;29.20;47.50;;;;;;4811891;29;20046;-90
2022/05/21 10:19:16;;;;;;;11.93;11.23;;;29.40;47.00;;;;;;4781190;29;20524;-90
2022/05/21 10:22:25;;;;;;;11.70;11.07;;;29.50;48.30;;;;;;4797117;29;20436;-90
2022/05/21 10:25:01;;;;;;;12.30;11.50;;;30.10;48.50;;;;;;4790454;29;20084;-90
2022/05/21 10:27:35;;;;;;;12.93;11.80;;;30.00;49.60;;;;;;4781103;29;20397;-91
2022/05/21 10:30:06;;;;;;;12.10;11.50;;;29.60;50.50;;;;;;4774679;30;20043;-91
2022/05/21 10:32:38;;;;;;;11.88;11.15;;;29.30;50.20;;;;;;4787764;29;20107;-91
2022/05/21 10:35:17;;;;;;;13.25;12.10;;;29.60;51.40;;;;;;4772159;29;20031;-89
2022/05/21 10:37:52;;;;;;;12.38;11.30;;;29.90;51.60;;;;;;4774611;30;20122;-90
2022/05/21 10:40:37;;;;;;;12.75;12.05;;;29.80;52.30;;;;;;4775819;29;20040;-90
2022/05/21 10:43:37;;;;;;;12.10;11.30;;;29.80;51.60;;;;;;4787791;29;20043;-90
2022/05/21 10:46:19;;;;;;;11.48;10.85;;;29.90;51.00;;;;;;4789544;29;20054;-92
2022/05/21 10:48:55;;;;;;;11.52;10.93;;;30.30;50.40;;;;;;4776860;29;20045;-92
2022/05/21 10:51:40;;;;;;;12.60;11.63;;;30.60;50.10;;;;;;4779342;29;20031;-91
2022/05/21 10:54:43;;;;;;;12.95;12.00;;;30.60;49.30;;;;;;4809305;29;20068;-90
